createdAt,value
2019-02-20T00:02:09.415Z,100792.06
2019-02-20T00:04:42.088Z,100790.89
2019-02-20T00:07:14.406Z,100790.05
2019-02-20T00:09:47.540Z,100791.88
2019-02-20T00:12:19.846Z,100802.36
2019-02-20T00:14:51.853Z,100802.36
2019-02-20T00:17:23.908Z,100798.14
2019-02-20T00:19:56.320Z,100805.63
2019-02-20T00:22:28.329Z,100798.00
2019-02-20T00:25:00.546Z,100802.54
2019-02-20T00:27:33.018Z,100807.79
2019-02-20T00:30:05.116Z,100809.47
2019-02-20T00:32:37.320Z,100806.09
2019-02-20T00:35:09.868Z,100811.99
2019-02-20T00:37:41.861Z,100813.73
2019-02-20T00:40:13.844Z,100809.33
2019-02-20T00:42:45.856Z,100812.84
2019-02-20T00:45:36.480Z,100817.59
2019-02-20T00:48:39.796Z,100816.58
2019-02-20T00:51:21.141Z,100811.71
2019-02-20T00:53:56.502Z,100819.01
2019-02-20T00:56:28.846Z,100823.23
2019-02-20T00:59:00.860Z,100819.71
2019-02-20T01:01:33.336Z,100825.09
2019-02-20T01:04:06.038Z,100821.34
2019-02-20T01:06:37.915Z,100822.14
2019-02-20T01:09:10.855Z,100819.28
2019-02-20T01:11:42.819Z,100821.16
2019-02-20T01:14:14.844Z,100823.88
2019-02-20T01:16:47.335Z,100827.28
2019-02-20T01:19:19.890Z,100818.12
2019-02-20T01:21:52.331Z,100816.25
2019-02-20T01:24:24.419Z,100817.27
2019-02-20T01:26:56.407Z,100818.12
2019-02-20T01:29:28.824Z,100818.59
2019-02-20T01:32:01.033Z,100818.27
2019-02-20T01:34:33.866Z,100808.76
2019-02-20T01:37:05.794Z,100809.60
2019-02-20T01:39:37.823Z,100805.06
2019-02-20T01:42:09.842Z,100799.77
2019-02-20T01:44:42.343Z,100803.78
2019-02-20T01:47:14.472Z,100804.45
2019-02-20T01:49:46.847Z,100808.52
2019-02-20T01:52:18.820Z,100808.14
2019-02-20T01:54:50.856Z,100806.64
2019-02-20T01:57:22.936Z,100802.25
2019-02-20T01:59:54.910Z,100806.13
2019-02-20T02:02:27.317Z,100810.05
2019-02-20T02:04:59.787Z,100808.00
2019-02-20T02:07:30.668Z,100809.45
2019-02-20T02:10:02.873Z,100812.77
2019-02-20T02:12:34.767Z,100812.77
2019-02-20T02:15:07.515Z,100814.36
2019-02-20T02:17:39.802Z,100803.73
2019-02-20T02:20:12.359Z,100803.73
2019-02-20T02:22:44.830Z,100812.31
2019-02-20T02:25:17.366Z,100808.09
2019-02-20T02:27:49.835Z,100807.06
2019-02-20T02:30:21.886Z,100811.60
2019-02-20T02:32:54.422Z,100806.67
2019-02-20T02:35:26.813Z,100811.08
2019-02-20T02:37:58.799Z,100809.77
2019-02-20T02:40:30.808Z,100810.56
2019-02-20T02:43:02.815Z,100811.08
2019-02-20T02:45:34.814Z,100811.60
2019-02-20T02:48:06.866Z,100813.94
2019-02-20T02:50:38.871Z,100817.20
2019-02-20T02:53:10.939Z,100825.88
2019-02-20T02:55:42.822Z,100828.25
2019-02-20T02:58:14.816Z,100827.86
2019-02-20T03:00:46.884Z,100816.36
2019-02-20T03:03:18.846Z,100822.96
2019-02-20T03:05:50.852Z,100813.45
2019-02-20T03:08:22.890Z,100810.25
2019-02-20T03:10:54.816Z,100808.22
2019-02-20T03:13:26.850Z,100815.66
2019-02-20T03:15:58.829Z,100814.95
2019-02-20T03:18:31.341Z,100812.11
2019-02-20T03:21:03.374Z,100810.42
2019-02-20T03:23:40.195Z,100811.27
2019-02-20T03:26:10.332Z,100816.31
2019-02-20T03:28:42.841Z,100811.60
2019-02-20T03:31:14.844Z,100821.14
2019-02-20T03:33:47.343Z,100825.53
2019-02-20T03:36:20.346Z,100826.38
2019-02-20T03:38:52.857Z,100829.92
2019-02-20T03:41:24.819Z,100832.45
2019-02-20T03:43:56.836Z,100835.17
2019-02-20T03:46:28.850Z,100838.45
2019-02-20T03:49:00.832Z,100843.67
2019-02-20T03:51:32.847Z,100842.27
2019-02-20T03:54:05.346Z,100846.31
2019-02-20T03:56:37.809Z,100845.69
2019-02-20T03:59:09.930Z,100840.02
2019-02-20T04:01:41.859Z,100841.25
2019-02-20T04:04:13.865Z,100843.50
2019-02-20T04:06:45.825Z,100839.41
2019-02-20T04:09:17.846Z,100836.66
2019-02-20T04:11:49.826Z,100842.25
2019-02-20T04:14:21.834Z,100844.41
2019-02-20T04:16:53.876Z,100856.47
2019-02-20T04:19:25.825Z,100857.31
2019-02-20T04:21:57.821Z,100852.54
2019-02-20T04:24:30.019Z,100854.09
2019-02-20T04:27:01.873Z,100856.61
2019-02-20T04:29:34.320Z,100854.62
2019-02-20T04:32:06.828Z,100858.40
2019-02-20T04:34:38.827Z,100853.05
2019-02-20T04:37:12.910Z,100859.40
2019-02-20T04:39:44.824Z,100856.41
2019-02-20T04:42:17.330Z,100861.78
2019-02-20T04:44:49.531Z,100861.13
2019-02-20T04:47:21.836Z,100856.41
2019-02-20T04:49:53.820Z,100854.40
2019-02-20T04:52:25.828Z,100860.70
2019-02-20T04:54:57.850Z,100856.69
2019-02-20T04:57:29.856Z,100854.02
2019-02-20T05:00:01.859Z,100858.28
2019-02-20T05:02:34.816Z,100858.47
2019-02-20T05:05:07.326Z,100853.09
2019-02-20T05:07:39.819Z,100857.53
2019-02-20T05:10:12.847Z,100860.75
2019-02-20T05:12:44.776Z,100860.19
2019-02-20T05:15:17.023Z,100861.80
2019-02-20T05:17:49.870Z,100862.91
2019-02-20T05:20:22.352Z,100866.52
2019-02-20T05:22:54.867Z,100866.47
2019-02-20T05:25:26.869Z,100865.30
2019-02-20T05:27:58.826Z,100869.88
2019-02-20T05:30:30.898Z,100869.69
2019-02-20T05:33:02.835Z,100869.69
2019-02-20T05:35:34.869Z,100867.59
2019-02-20T05:38:07.344Z,100871.89
2019-02-20T05:40:39.493Z,100867.27
2019-02-20T05:43:11.861Z,100869.38
2019-02-20T05:45:43.902Z,100860.95
2019-02-20T05:48:15.879Z,100861.14
2019-02-20T05:50:48.327Z,100866.44
2019-02-20T05:53:21.358Z,100874.91
2019-02-20T05:55:54.065Z,100879.44
2019-02-20T05:58:26.852Z,100874.89
2019-02-20T06:00:58.873Z,100879.62
2019-02-20T06:03:31.343Z,100879.30
2019-02-20T06:06:03.809Z,100887.56
2019-02-20T06:08:35.875Z,100894.81
2019-02-20T06:11:14.650Z,100897.72
2019-02-20T06:13:41.908Z,100884.98
2019-02-20T06:16:13.847Z,100884.98
2019-02-20T06:18:45.864Z,100902.31
2019-02-20T06:21:17.840Z,100903.02
2019-02-20T06:23:49.857Z,100910.12
2019-02-20T06:26:22.105Z,100911.52
2019-02-20T06:28:54.822Z,100916.66
2019-02-20T06:31:26.815Z,100918.33
2019-02-20T06:33:58.869Z,100917.30
2019-02-20T06:36:31.329Z,100926.47
2019-02-20T06:39:05.445Z,100928.84
2019-02-20T06:41:39.432Z,100927.97
2019-02-20T06:44:11.879Z,100931.56
2019-02-20T06:46:43.850Z,100932.60
2019-02-20T06:49:15.866Z,100933.88
2019-02-20T06:51:47.837Z,100935.33
2019-02-20T06:54:19.918Z,100939.72
2019-02-20T06:56:51.817Z,100943.45
2019-02-20T06:59:23.848Z,100946.88
2019-02-20T07:01:55.951Z,100948.63
2019-02-20T07:04:28.062Z,100945.58
2019-02-20T07:10:46.798Z,100953.08
2019-02-20T07:14:31.358Z,100947.67
2019-02-20T07:17:43.776Z,100952.11
2019-02-20T07:21:11.626Z,100952.78
2019-02-20T07:25:05.313Z,100956.84
2019-02-20T07:28:47.757Z,100956.84
2019-02-20T07:31:18.510Z,100971.00
2019-02-20T07:33:50.745Z,100970.98
2019-02-20T07:36:21.455Z,100973.05
2019-02-20T07:38:53.322Z,100978.49
2019-02-20T07:41:25.358Z,100979.34
2019-02-20T07:43:57.310Z,100986.63
2019-02-20T07:46:28.837Z,100997.28
2019-02-20T07:49:00.392Z,100999.36
2019-02-20T07:51:32.073Z,101007.00
2019-02-20T07:54:03.779Z,101012.21
2019-02-20T07:56:35.269Z,101012.86
2019-02-20T08:01:49.621Z,101020.25
2019-02-20T08:04:21.348Z,101016.69
2019-02-20T08:06:53.058Z,101016.69
2019-02-20T08:09:25.302Z,101028.98
2019-02-20T08:11:57.300Z,101032.72
2019-02-20T08:14:29.305Z,101030.02
2019-02-20T08:17:01.354Z,101029.73
2019-02-20T08:19:33.391Z,101030.39
2019-02-20T08:22:05.336Z,101029.37
2019-02-20T08:24:37.067Z,101032.73
2019-02-20T08:27:08.811Z,101032.09
2019-02-20T08:29:40.851Z,101037.50
2019-02-20T08:32:13.063Z,101043.31
2019-02-20T08:34:44.792Z,101042.44
2019-02-20T08:37:16.613Z,101044.30
2019-02-20T08:39:48.675Z,101044.86
2019-02-20T08:42:20.618Z,101044.30
2019-02-20T08:44:52.834Z,101057.87
2019-02-20T08:47:24.393Z,101057.87
2019-02-20T08:49:56.321Z,101053.15
2019-02-20T08:52:28.256Z,101063.19
2019-02-20T08:55:00.255Z,101060.84
2019-02-20T08:57:32.774Z,101058.59
2019-02-20T09:00:04.758Z,101060.13
2019-02-20T09:02:35.597Z,101064.73
2019-02-20T09:05:09.060Z,101069.00
2019-02-20T09:07:40.781Z,101069.00
2019-02-20T09:10:12.841Z,101073.49
2019-02-20T09:12:47.310Z,101076.64
2019-02-20T09:15:19.805Z,101075.80
2019-02-20T09:17:52.236Z,101070.83
2019-02-20T09:20:24.293Z,101074.20
2019-02-20T09:22:56.298Z,101076.59
2019-02-20T09:25:28.858Z,101074.59
2019-02-20T09:28:00.816Z,101073.41
2019-02-20T09:30:34.264Z,101078.38
2019-02-20T09:33:06.824Z,101079.23
2019-02-20T09:35:38.894Z,101075.53
2019-02-20T09:38:10.799Z,101079.14
2019-02-20T09:40:42.814Z,101085.05
2019-02-20T09:43:14.824Z,101083.36
2019-02-20T09:45:46.755Z,101086.92
2019-02-20T09:48:17.651Z,101093.59
2019-02-20T09:50:49.799Z,101095.31
2019-02-20T09:53:21.783Z,101093.59
2019-02-20T09:55:53.804Z,101099.16
2019-02-20T09:58:26.414Z,101096.10
2019-02-20T10:00:58.677Z,101103.09
2019-02-20T10:03:30.835Z,101092.88
2019-02-20T10:06:02.827Z,101092.88
2019-02-20T10:08:34.783Z,101095.84
2019-02-20T10:11:05.841Z,101099.59
2019-02-20T10:13:37.798Z,101098.28
2019-02-20T10:16:09.795Z,101113.04
2019-02-20T10:18:41.814Z,101112.86
2019-02-20T10:21:13.782Z,101109.66
2019-02-20T10:23:45.309Z,101110.32
2019-02-20T10:26:17.504Z,101116.46
2019-02-20T10:28:49.494Z,101109.15
2019-02-20T10:31:21.767Z,101119.19
2019-02-20T10:33:52.638Z,101113.61
2019-02-20T10:36:24.889Z,101099.59
2019-02-20T10:38:57.317Z,101099.59
2019-02-20T10:41:29.318Z,101113.42
2019-02-20T10:44:01.325Z,101115.44
2019-02-20T10:46:33.863Z,101109.62
2019-02-20T10:49:05.753Z,101113.51
2019-02-20T10:51:38.822Z,101113.89
2019-02-20T10:54:12.491Z,101107.80
2019-02-20T10:56:44.499Z,101114.45
2019-02-20T10:59:16.810Z,101117.31
2019-02-20T11:01:48.848Z,101122.42
2019-02-20T11:04:20.804Z,101114.92
2019-02-20T11:06:52.839Z,101106.06
2019-02-20T11:09:24.815Z,101112.39
2019-02-20T11:11:58.755Z,101107.66
2019-02-20T11:14:29.813Z,101106.34
2019-02-20T11:17:01.831Z,101104.79
2019-02-20T11:19:33.838Z,101101.98
2019-02-20T11:22:05.824Z,101105.35
2019-02-20T11:24:37.807Z,101107.17
2019-02-20T11:27:09.824Z,101107.37
2019-02-20T11:29:41.875Z,101102.31
2019-02-20T11:32:13.779Z,101100.99
2019-02-20T11:34:45.842Z,101105.08
2019-02-20T11:37:17.870Z,101103.43
2019-02-20T11:39:49.751Z,101091.37
2019-02-20T11:42:20.698Z,101092.41
2019-02-20T11:44:51.647Z,101094.44
2019-02-20T11:47:23.809Z,101096.82
2019-02-20T11:49:57.088Z,101096.82
2019-02-20T11:52:36.422Z,101090.87
2019-02-20T11:55:02.848Z,101088.15
2019-02-20T11:57:34.811Z,101093.40
2019-02-20T12:00:07.362Z,101083.88
2019-02-20T12:02:39.798Z,101089.51
2019-02-20T12:05:11.823Z,101087.63
2019-02-20T12:07:43.791Z,101089.00
2019-02-20T12:10:15.317Z,101090.69
2019-02-20T12:12:47.807Z,101092.41
2019-02-20T12:15:19.839Z,101098.66
2019-02-20T12:17:51.848Z,101098.66
2019-02-20T12:20:23.800Z,101087.45
2019-02-20T12:22:55.826Z,101088.15
2019-02-20T12:25:27.774Z,101095.28
2019-02-20T12:27:59.699Z,101093.59
2019-02-20T12:30:30.734Z,101093.91
2019-02-20T12:33:01.659Z,101089.47
2019-02-20T12:35:33.851Z,101072.77
2019-02-20T12:38:05.798Z,101072.77
2019-02-20T12:40:37.790Z,101089.61
2019-02-20T12:43:10.310Z,101093.82
2019-02-20T12:45:42.812Z,101085.85
2019-02-20T12:48:14.265Z,101089.75
2019-02-20T12:50:46.308Z,101087.08
2019-02-20T12:53:19.070Z,101086.75
2019-02-20T12:55:51.311Z,101097.67
2019-02-20T12:58:23.774Z,101094.77
2019-02-20T13:00:55.849Z,101092.89
2019-02-20T13:03:27.820Z,101092.38
2019-02-20T13:05:59.841Z,101090.50
2019-02-20T13:08:31.830Z,101093.92
2019-02-20T13:11:03.800Z,101098.52
2019-02-20T13:13:35.859Z,101088.80
2019-02-20T13:16:09.644Z,101091.86
2019-02-20T13:18:41.818Z,101076.53
2019-02-20T13:21:13.840Z,101076.53
2019-02-20T13:23:45.719Z,101084.41
2019-02-20T13:26:16.678Z,101089.18
2019-02-20T13:28:47.666Z,101088.34
2019-02-20T13:31:18.637Z,101089.00
2019-02-20T13:33:49.702Z,101089.00
2019-02-20T13:36:22.277Z,101080.37
2019-02-20T13:38:54.318Z,101076.29
2019-02-20T13:41:26.522Z,101074.97
2019-02-20T13:43:58.819Z,101076.33
2019-02-20T13:46:30.824Z,101076.33
2019-02-20T13:49:02.818Z,101072.21
2019-02-20T13:51:36.329Z,101069.67
2019-02-20T13:54:08.786Z,101079.20
2019-02-20T13:56:40.790Z,101074.27
2019-02-20T13:59:11.681Z,101069.48
2019-02-20T14:01:43.265Z,101072.02
2019-02-20T14:04:16.306Z,101076.95
2019-02-20T14:06:48.394Z,101085.10
2019-02-20T14:09:20.707Z,101080.52
2019-02-20T14:11:52.622Z,101078.64
2019-02-20T14:14:24.826Z,101085.10
2019-02-20T14:16:57.058Z,101085.10
2019-02-20T14:19:28.744Z,101079.00
2019-02-20T14:22:00.645Z,101083.08
2019-02-20T14:24:31.446Z,101084.92
2019-02-20T14:27:10.496Z,101077.28
2019-02-20T14:29:37.302Z,101070.33
2019-02-20T14:32:09.314Z,101069.48
2019-02-20T14:34:41.307Z,101070.70
2019-02-20T14:37:13.309Z,101069.48
2019-02-20T14:39:45.309Z,101069.16
2019-02-20T14:42:16.625Z,101070.52
2019-02-20T14:44:48.777Z,101073.05
2019-02-20T14:47:20.753Z,101073.05
2019-02-20T14:49:51.501Z,101076.61
2019-02-20T14:52:23.315Z,101083.22
2019-02-20T14:54:54.919Z,101083.70
2019-02-20T14:57:26.845Z,101085.06
2019-02-20T14:59:58.366Z,101082.67
2019-02-20T15:02:30.311Z,101089.98
2019-02-20T15:05:02.052Z,101083.75
2019-02-20T15:07:33.902Z,101090.25
2019-02-20T15:10:05.759Z,101085.91
2019-02-20T15:12:37.391Z,101093.79
2019-02-20T15:15:10.778Z,101095.67
2019-02-20T15:17:42.727Z,101093.95
2019-02-20T15:20:13.487Z,101097.20
2019-02-20T15:22:45.310Z,101092.58
2019-02-20T15:25:17.317Z,101090.52
2019-02-20T15:27:49.069Z,101098.53
2019-02-20T15:30:20.708Z,101103.28
2019-02-20T15:32:51.503Z,101095.29
2019-02-20T15:35:23.310Z,101088.63
2019-02-20T15:37:54.882Z,101095.98
2019-02-20T15:40:26.858Z,101093.80
2019-02-20T15:42:58.606Z,101098.55
2019-02-20T15:45:29.664Z,101090.89
2019-02-20T15:48:01.787Z,101092.42
2019-02-20T15:50:32.638Z,101092.43
2019-02-20T15:53:04.053Z,101097.91
2019-02-20T15:55:35.629Z,101103.16
2019-02-20T15:58:06.623Z,101103.16
2019-02-20T16:00:38.786Z,101109.48
2019-02-20T16:03:10.802Z,101107.09
2019-02-20T16:05:42.742Z,101111.52
2019-02-20T16:08:13.964Z,101110.09
2019-02-20T16:10:45.731Z,101114.67
2019-02-20T16:13:16.629Z,101119.59
2019-02-20T16:15:48.263Z,101113.77
2019-02-20T16:18:20.102Z,101116.47
2019-02-20T16:20:51.786Z,101123.44
2019-02-20T16:23:23.832Z,101123.25
2019-02-20T16:25:55.798Z,101126.49
2019-02-20T16:28:33.640Z,101134.27
2019-02-20T16:31:01.316Z,101128.79
2019-02-20T16:33:33.041Z,101135.56
2019-02-20T16:36:04.781Z,101135.19
2019-02-20T16:38:35.646Z,101139.86
2019-02-20T16:41:06.463Z,101141.87
2019-02-20T16:43:38.499Z,101138.89
2019-02-20T16:46:10.790Z,101134.00
2019-02-20T16:48:43.230Z,101134.00
2019-02-20T16:51:15.334Z,101144.12
2019-02-20T16:56:31.796Z,101143.11
2019-02-20T16:59:05.139Z,101148.50
2019-02-20T17:01:37.301Z,101167.91
2019-02-20T17:04:09.325Z,101169.01
2019-02-20T17:06:41.324Z,101169.59
2019-02-20T17:09:13.769Z,101170.78
2019-02-20T17:11:45.868Z,101171.12
2019-02-20T17:14:17.816Z,101178.30
2019-02-20T17:16:49.770Z,101178.95
2019-02-20T17:19:20.629Z,101182.98
2019-02-20T17:21:52.756Z,101182.24
2019-02-20T17:24:23.605Z,101182.24
2019-02-20T17:26:55.777Z,101166.34
2019-02-20T17:29:27.806Z,101166.34
2019-02-20T17:31:59.775Z,101185.03
2019-02-20T17:34:30.622Z,101184.48
2019-02-20T17:37:02.448Z,101178.92
2019-02-20T17:39:34.312Z,101178.92
2019-02-20T17:42:06.478Z,101178.84
2019-02-20T17:44:38.334Z,101182.50
2019-02-20T17:47:09.919Z,101182.50
2019-02-20T17:49:41.827Z,101187.86
2019-02-20T17:52:13.794Z,101190.52
2019-02-20T17:54:45.701Z,101200.34
2019-02-20T17:57:16.474Z,101201.53
2019-02-20T17:59:48.307Z,101196.99
2019-02-20T18:02:20.035Z,101197.13
2019-02-20T18:04:52.302Z,101200.17
2019-02-20T18:07:23.893Z,101199.39
2019-02-20T18:09:55.740Z,101204.85
2019-02-20T18:12:26.487Z,101204.20
2019-02-20T18:14:58.788Z,101209.83
2019-02-20T18:17:30.581Z,101201.34
2019-02-20T18:20:01.776Z,101206.77
2019-02-20T18:22:33.257Z,101208.52
2019-02-20T18:25:04.847Z,101208.83
2019-02-20T18:27:36.397Z,101209.61
2019-02-20T19:00:35.906Z,101231.44
2019-02-20T19:03:08.250Z,101240.89
2019-02-20T19:05:40.345Z,101241.33
2019-02-20T19:08:51.111Z,101237.81
2019-02-20T19:12:04.521Z,101236.95
2019-02-20T19:15:31.408Z,101242.47
2019-02-20T19:19:06.084Z,101242.47
2019-02-20T19:22:17.387Z,101241.44
2019-02-20T19:26:22.568Z,101249.39
2019-02-20T19:30:06.616Z,101243.30
2019-02-20T19:33:39.473Z,101243.30
2019-02-20T19:37:09.106Z,101248.70
2019-02-20T19:40:16.276Z,101249.31
2019-02-20T19:43:42.071Z,101248.94
2019-02-20T19:47:36.406Z,101255.50
2019-02-20T19:51:06.525Z,101254.02
2019-02-20T19:54:45.487Z,101257.52
2019-02-20T19:58:12.896Z,101253.98
2019-02-20T20:02:15.320Z,101253.98
2019-02-20T20:06:04.418Z,101254.16
2019-02-20T20:09:28.294Z,101256.22
2019-02-20T20:13:33.925Z,101258.74
2019-02-20T20:17:21.421Z,101255.91
2019-02-20T20:20:58.461Z,101260.44
2019-02-20T20:24:54.038Z,101260.39
2019-02-20T20:28:29.840Z,101254.63
2019-02-20T20:32:09.914Z,101259.75
2019-02-20T20:36:10.448Z,101263.77
2019-02-20T20:40:50.954Z,101263.25
2019-02-20T20:44:35.291Z,101261.53
2019-02-20T20:48:13.710Z,101258.06
2019-02-20T20:51:36.933Z,101262.80
2019-02-20T20:55:39.248Z,101254.23
2019-02-20T20:59:26.347Z,101247.75
2019-02-20T21:02:46.361Z,101253.13
2019-02-20T21:06:44.833Z,101249.05
2019-02-20T21:10:14.055Z,101249.05
2019-02-20T21:13:38.332Z,101246.21
2019-02-20T21:17:18.013Z,101250.47
2019-02-20T21:20:40.355Z,101252.48
2019-02-20T21:24:26.481Z,101247.36
2019-02-20T21:28:17.030Z,101251.38
2019-02-20T21:32:22.083Z,101248.58
2019-02-20T21:35:44.903Z,101250.28
2019-02-20T21:39:35.605Z,101245.02
2019-02-20T21:43:20.605Z,101245.35
2019-02-20T21:47:14.697Z,101226.05
2019-02-20T21:50:23.657Z,101226.05
2019-02-20T21:53:39.709Z,101251.23
2019-02-20T21:56:41.128Z,101253.56
2019-02-20T22:00:13.899Z,101253.76
2019-02-20T22:04:21.009Z,101252.46
2019-02-20T22:08:09.873Z,101256.98
2019-02-20T22:12:09.940Z,101259.69
2019-02-20T22:15:27.913Z,101258.77
2019-02-20T22:18:53.835Z,101258.27
2019-02-20T22:22:38.865Z,101256.67
2019-02-20T22:26:51.338Z,101263.58
2019-02-20T22:30:34.935Z,101257.63
2019-02-20T22:34:18.373Z,101251.04
2019-02-20T22:38:50.863Z,101257.03
2019-02-20T22:42:46.048Z,101256.92
2019-02-20T22:45:44.933Z,101251.89
2019-02-20T22:49:32.287Z,101259.36
2019-02-20T22:52:51.918Z,101261.57
2019-02-20T22:56:34.015Z,101257.49
2019-02-20T23:00:34.381Z,101264.23
2019-02-20T23:04:15.329Z,101255.78
2019-02-20T23:08:01.843Z,101264.06
2019-02-20T23:11:37.880Z,101258.25
2019-02-20T23:17:44.393Z,101262.16
2019-02-20T23:20:16.904Z,101269.26
2019-02-20T23:22:49.362Z,101271.19
2019-02-20T23:25:21.872Z,101265.75
2019-02-20T23:27:53.846Z,101269.45
2019-02-20T23:30:25.879Z,101273.33
2019-02-20T23:32:57.892Z,101275.50
2019-02-20T23:35:29.917Z,101273.58
2019-02-20T23:38:01.853Z,101277.24
2019-02-20T23:40:33.861Z,101281.83
2019-02-20T23:43:06.051Z,101296.26
2019-02-20T23:45:38.347Z,101293.06
2019-02-20T23:48:10.822Z,101295.58
2019-02-20T23:50:42.825Z,101292.15
2019-02-20T23:53:15.290Z,101297.88
2019-02-20T23:55:47.881Z,101296.36
2019-02-20T23:58:19.910Z,101303.31
